Terminal Aerodrome Forecast
Issued by NWS

Home | Current Version | Previous Version | Text Only | Print | Product List | Glossary On
Versions: 1 2 3 4 5 6 7 8 9 10 11 12 13 14
958
FTUS46 KMTR 180727 AAA
TAFMRY
TAF AMD
KMRY 180727Z 1807/1906 12003KT 1SM BR OVC001
     FM181700 12003KT P6SM FEW008 SCT180
     FM181800 29004KT P6SM FEW008 SCT180
     FM190300 21006KT P6SM BKN008=

USA.gov is the U.S. government's official web portal to all federal, state and local government web resources and services.